GB-0466 weather

London Colney
England, United Kingdom

Public forecast

Using degrees Celsius for public forecast. Weather courtesy of forecast.io.

METAR (pilot weather report)

Closest report is RAF Northolt, 10.6 nm (19.6 km) SSW. Retrieved 2019/03/26 15:50 UTC (21 minutes ago):

EGWU 261550Z 35008KT 9999 SCT045 13/02 Q1032 BLU NOSIG

TAF (pilot weather forecast)

Forecast is more than 6 hours old.

Closest forecast is RAF Northolt, 10.6 nm (19.6 km) SSW. Retrieved 2019/03/26 09:00 UTC (7 hours ago):

TAF EGWU 260725Z 2609/2703 32005KT 9999 FEW030